createdAt,value
2019-05-06T00:02:08.927Z,2.43
2019-05-06T00:04:40.647Z,2.50
2019-05-06T00:07:09.665Z,2.57
2019-05-06T00:09:38.606Z,2.53
2019-05-06T00:12:16.764Z,2.67
2019-05-06T00:14:45.694Z,2.90
2019-05-06T00:17:14.810Z,2.43
2019-05-06T00:19:44.775Z,2.73
2019-05-06T00:22:23.796Z,2.73
2019-05-06T00:24:59.282Z,2.83
2019-05-06T00:27:38.743Z,3.00
2019-05-06T00:30:08.197Z,2.87
2019-05-06T00:35:45.040Z,3.20
2019-05-06T00:38:16.837Z,2.67
2019-05-06T00:40:47.345Z,2.97
2019-05-06T00:43:25.572Z,2.87
2019-05-06T00:45:56.716Z,2.87
2019-05-06T00:48:25.553Z,3.00
2019-05-06T00:50:54.445Z,2.40
2019-05-06T00:53:34.757Z,2.80
2019-05-06T00:56:04.623Z,2.40
2019-05-06T00:58:34.800Z,2.93
2019-05-06T01:03:38.132Z,2.30
2019-05-06T01:06:07.029Z,2.60
2019-05-06T01:08:37.509Z,2.30
2019-05-06T01:11:07.679Z,2.10
2019-05-06T01:13:51.710Z,2.33
2019-05-06T01:16:22.121Z,2.33
2019-05-06T01:18:54.108Z,2.00
2019-05-06T01:21:23.809Z,2.53
2019-05-06T01:24:03.800Z,2.37
2019-05-06T01:26:33.744Z,2.40
2019-05-06T01:29:03.978Z,2.20
2019-05-06T01:31:42.305Z,2.87
2019-05-06T01:36:49.105Z,2.77
2019-05-06T01:39:49.074Z,3.20
2019-05-06T01:42:26.618Z,2.90
2019-05-06T01:45:05.489Z,3.03
2019-05-06T01:47:37.529Z,2.93
2019-05-06T01:50:06.773Z,3.60
2019-05-06T01:52:35.786Z,2.97
2019-05-06T01:55:14.188Z,3.00
2019-05-06T01:57:44.458Z,2.93
2019-05-06T02:00:14.501Z,2.90
2019-05-06T02:02:57.551Z,2.63
2019-05-06T02:05:26.473Z,2.97
2019-05-06T02:07:55.377Z,2.60
2019-05-06T02:10:24.298Z,3.23
2019-05-06T02:13:08.430Z,3.27
2019-05-06T02:15:37.265Z,2.40
2019-05-06T02:18:07.308Z,2.93
2019-05-06T02:20:44.519Z,3.37
2019-05-06T02:23:25.530Z,3.23
2019-05-06T02:25:54.645Z,3.70
2019-05-06T02:28:23.810Z,3.20
2019-05-06T02:31:20.714Z,3.47
2019-05-06T02:34:05.158Z,3.17
2019-05-06T02:36:45.516Z,3.30
2019-05-06T02:39:15.498Z,2.83
2019-05-06T02:41:44.485Z,2.93
2019-05-06T02:44:23.884Z,3.13
2019-05-06T02:47:02.712Z,3.07
2019-05-06T02:49:36.025Z,3.13
2019-05-06T02:52:07.782Z,3.80
2019-05-06T02:54:45.816Z,3.43
2019-05-06T02:57:15.111Z,3.20
2019-05-06T02:59:44.384Z,3.50
2019-05-06T03:02:33.725Z,3.53
2019-05-06T03:04:55.941Z,3.90
2019-05-06T03:07:24.892Z,3.83
2019-05-06T03:09:53.890Z,3.63
2019-05-06T03:12:23.122Z,3.77
2019-05-06T03:15:03.346Z,3.87
2019-05-06T03:17:32.888Z,3.70
2019-05-06T03:20:04.456Z,3.90
2019-05-06T03:22:46.159Z,4.07
2019-05-06T03:25:28.129Z,3.67
2019-05-06T03:27:57.056Z,3.67
2019-05-06T03:30:28.843Z,3.63
2019-05-06T03:33:31.244Z,4.30
2019-05-06T03:35:44.232Z,3.67
2019-05-06T03:38:03.638Z,3.57
2019-05-06T03:40:36.139Z,3.73
2019-05-06T03:43:02.831Z,3.73
2019-05-06T03:46:14.290Z,3.70
2019-05-06T03:48:44.509Z,3.50
2019-05-06T03:51:13.776Z,3.77
2019-05-06T03:53:44.061Z,3.63
2019-05-06T03:56:23.861Z,3.40
2019-05-06T03:58:54.198Z,3.37
2019-05-06T04:01:24.018Z,2.77
2019-05-06T04:03:56.957Z,3.43
2019-05-06T04:06:24.301Z,3.00
2019-05-06T04:08:53.956Z,3.10
2019-05-06T04:11:25.101Z,3.40
2019-05-06T04:13:55.694Z,3.07
2019-05-06T04:17:07.742Z,3.50
2019-05-06T04:19:43.760Z,3.53
2019-05-06T04:22:23.580Z,3.50
2019-05-06T04:25:13.956Z,3.83
2019-05-06T04:27:53.756Z,3.33
2019-05-06T04:30:24.304Z,3.10
2019-05-06T04:32:53.478Z,3.93
2019-05-06T04:35:35.373Z,3.20
2019-05-06T04:39:13.269Z,4.07
2019-05-06T04:41:13.633Z,3.70
2019-05-06T04:51:24.918Z,4.57
2019-05-06T04:53:55.246Z,4.63
2019-05-06T04:56:36.351Z,4.17
2019-05-06T04:59:06.820Z,4.00
2019-05-06T05:01:36.167Z,3.80
2019-05-06T05:04:28.484Z,4.13
2019-05-06T05:06:46.325Z,4.43
2019-05-06T05:09:17.393Z,4.47
2019-05-06T05:11:53.227Z,4.43
2019-05-06T05:14:42.183Z,7.87
2019-05-06T05:17:17.694Z,8.60
2019-05-06T05:19:47.111Z,9.50
2019-05-06T05:22:16.155Z,4.63
2019-05-06T05:24:53.949Z,4.07
2019-05-06T05:27:22.957Z,4.23
2019-05-06T05:29:52.287Z,5.53
2019-05-06T05:32:22.539Z,4.87
2019-05-06T05:35:04.122Z,4.67
2019-05-06T05:37:34.403Z,4.50
2019-05-06T05:40:03.367Z,4.33
2019-05-06T05:42:39.773Z,4.20
2019-05-06T05:45:28.467Z,4.63
2019-05-06T05:48:52.140Z,4.27
2019-05-06T11:11:20.074Z,3.20
2019-05-06T11:13:47.828Z,3.20
2019-05-06T11:20:06.503Z,3.62
2019-05-06T11:21:24.538Z,3.60
2019-05-06T11:24:06.173Z,3.83
2019-05-06T11:26:26.112Z,3.90
2019-05-06T11:31:58.495Z,4.07
2019-05-06T11:34:49.940Z,4.47
2019-05-06T11:40:17.024Z,3.80
2019-05-06T11:42:52.888Z,4.17
2019-05-06T11:45:22.907Z,4.60
2019-05-06T11:48:03.023Z,3.90
2019-05-06T11:50:33.421Z,4.27
2019-05-06T11:53:02.620Z,5.07
2019-05-06T11:55:38.029Z,4.80
2019-05-06T11:58:36.684Z,4.20
2019-05-06T12:01:13.293Z,4.47
2019-05-06T12:03:42.777Z,3.97
2019-05-06T12:06:14.161Z,4.40
2019-05-06T12:08:55.136Z,4.43
2019-05-06T12:11:24.223Z,4.57
2019-05-06T12:13:58.738Z,5.37
2019-05-06T12:16:28.761Z,4.80
2019-05-06T12:19:08.731Z,5.20
2019-05-06T12:49:29.566Z,5.13
2019-05-06T12:51:58.804Z,4.67
2019-05-06T12:54:37.680Z,4.97
2019-05-06T13:01:45.556Z,4.80
2019-05-06T13:04:14.717Z,4.83
2019-05-06T13:06:49.048Z,4.70
2019-05-06T13:09:33.307Z,4.80
2019-05-06T13:29:25.819Z,5.20
2019-05-06T13:43:32.668Z,4.40
2019-05-06T13:46:07.128Z,6.27
2019-05-06T15:31:45.780Z,7.00
2019-05-06T15:34:19.755Z,7.37
2019-05-06T15:37:53.545Z,6.97
2019-05-06T15:54:53.350Z,3.67
2019-05-06T15:57:23.075Z,3.30
2019-05-06T16:00:02.671Z,3.53
2019-05-06T16:02:33.901Z,3.67
2019-05-06T16:05:11.199Z,3.50
2019-05-06T16:07:38.126Z,3.80
2019-05-06T16:38:46.688Z,3.10
2019-05-06T16:51:39.126Z,3.27
2019-05-06T16:54:14.926Z,3.27
2019-05-06T16:56:48.404Z,3.73
2019-05-06T16:59:23.599Z,3.07
2019-05-06T17:02:02.388Z,3.17
2019-05-06T17:04:52.619Z,2.90
2019-05-06T17:07:25.973Z,3.33
2019-05-06T18:53:15.896Z,3.10
2019-05-06T18:55:45.196Z,3.30
2019-05-06T18:58:14.335Z,2.90
2019-05-06T19:00:47.132Z,3.10
2019-05-06T19:03:54.904Z,3.20
2019-05-06T19:06:24.114Z,3.67
2019-05-06T19:08:59.656Z,3.80
2019-05-06T19:11:29.320Z,3.70
2019-05-06T19:16:51.811Z,3.13
2019-05-06T19:19:16.554Z,3.17
2019-05-06T19:22:03.985Z,3.73
2019-05-06T19:24:33.859Z,3.60
2019-05-06T19:27:04.050Z,3.53
2019-05-06T19:29:33.764Z,3.43
